createdAt,value
2022-11-22T00:00:21.727Z,3.00
2022-11-22T00:02:48.363Z,3.00
2022-11-22T00:05:14.939Z,3.00
2022-11-22T00:07:41.897Z,3.00
2022-11-22T00:10:08.872Z,3.00
2022-11-22T00:12:36.085Z,2.90
2022-11-22T00:15:02.631Z,2.90
2022-11-22T00:17:29.185Z,2.80
2022-11-22T00:19:55.713Z,2.70
2022-11-22T00:22:22.252Z,2.60
2022-11-22T00:24:51.248Z,2.60
2022-11-22T00:27:18.065Z,2.70
2022-11-22T00:29:44.703Z,2.60
2022-11-22T00:32:11.256Z,2.60
2022-11-22T00:34:37.807Z,2.70
2022-11-22T00:37:04.378Z,2.80
2022-11-22T00:39:31.279Z,2.90
2022-11-22T00:41:58.158Z,2.90
2022-11-22T00:44:24.682Z,2.90
2022-11-22T00:46:51.235Z,2.90
2022-11-22T00:49:17.770Z,2.90
2022-11-22T00:51:44.306Z,3.00
2022-11-22T00:54:10.830Z,3.10
2022-11-22T00:56:37.403Z,3.20
2022-11-22T00:59:03.955Z,3.20
2022-11-22T01:01:30.528Z,3.30
2022-11-22T01:03:57.092Z,3.40
2022-11-22T01:06:23.672Z,3.40
2022-11-22T01:08:50.213Z,3.40
2022-11-22T01:11:16.970Z,3.40
2022-11-22T01:13:43.633Z,3.50
2022-11-22T01:16:10.439Z,3.50
2022-11-22T01:18:36.999Z,3.60
2022-11-22T01:21:03.832Z,3.60
2022-11-22T01:23:30.762Z,3.50
2022-11-22T01:25:57.348Z,3.50
2022-11-22T01:28:23.888Z,3.40
2022-11-22T01:30:50.777Z,3.40
2022-11-22T01:33:17.316Z,3.40
2022-11-22T01:35:43.871Z,3.30
2022-11-22T01:38:10.401Z,3.30
2022-11-22T01:40:37.073Z,3.30
2022-11-22T01:43:03.734Z,3.30
2022-11-22T01:45:30.280Z,3.30
2022-11-22T01:47:56.804Z,3.40
2022-11-22T01:50:23.348Z,3.30
2022-11-22T01:52:49.898Z,3.40
2022-11-22T01:55:16.442Z,3.40
2022-11-22T01:57:42.995Z,3.40
2022-11-22T02:00:10.611Z,3.40
2022-11-22T02:02:37.164Z,3.40
2022-11-22T02:05:04.218Z,3.50
2022-11-22T02:07:35.465Z,3.50
2022-11-22T02:10:02.025Z,3.50
2022-11-22T02:12:28.670Z,3.50
2022-11-22T02:14:55.247Z,3.40
2022-11-22T02:17:21.790Z,3.40
2022-11-22T02:19:48.644Z,3.40
2022-11-22T02:22:30.530Z,3.40
2022-11-22T02:24:57.783Z,3.40
2022-11-22T02:27:24.348Z,3.40
2022-11-22T02:29:50.886Z,3.40
2022-11-22T02:32:17.437Z,3.50
2022-11-22T02:34:44.810Z,3.50
2022-11-22T02:37:11.550Z,3.60
2022-11-22T02:39:38.076Z,3.60
2022-11-22T02:42:04.642Z,3.70
2022-11-22T02:44:31.167Z,3.70
2022-11-22T02:46:57.724Z,3.70
2022-11-22T02:49:24.621Z,3.70
2022-11-22T02:51:51.438Z,3.70
2022-11-22T02:54:18.018Z,3.80
2022-11-22T02:56:44.570Z,3.70
2022-11-22T02:59:11.107Z,3.70
2022-11-22T03:01:37.913Z,3.70
2022-11-22T03:04:04.586Z,3.70
2022-11-22T03:06:31.144Z,3.70
2022-11-22T03:08:57.743Z,3.80
2022-11-22T03:11:24.453Z,3.80
2022-11-22T03:13:51.096Z,3.80
2022-11-22T03:16:17.647Z,3.80
2022-11-22T03:18:44.191Z,3.80
2022-11-22T03:21:10.797Z,3.90
2022-11-22T03:23:37.418Z,3.90
2022-11-22T03:26:11.751Z,4.00
2022-11-22T03:28:38.298Z,4.00
2022-11-22T03:31:05.733Z,4.00
2022-11-22T03:33:32.610Z,4.00
2022-11-22T03:35:59.166Z,4.00
2022-11-22T03:38:25.706Z,4.00
2022-11-22T03:40:52.244Z,4.10
2022-11-22T03:43:18.838Z,4.10
2022-11-22T03:45:45.974Z,4.10
2022-11-22T03:48:12.556Z,4.10
2022-11-22T03:50:39.096Z,4.10
2022-11-22T03:53:05.687Z,4.10
2022-11-22T03:55:32.231Z,4.10
2022-11-22T03:57:58.771Z,4.10
2022-11-22T04:00:25.304Z,4.10
2022-11-22T04:02:51.887Z,4.10
2022-11-22T04:05:18.467Z,4.10
2022-11-22T04:07:45.095Z,4.10
2022-11-22T04:10:11.729Z,4.10
2022-11-22T04:12:38.290Z,4.10
2022-11-22T04:15:08.200Z,4.20
2022-11-22T04:17:44.779Z,4.20
2022-11-22T04:20:29.735Z,4.20
2022-11-22T04:22:57.277Z,4.20
2022-11-22T04:25:24.606Z,4.20
2022-11-22T04:27:51.150Z,4.20
2022-11-22T04:30:20.655Z,4.20
2022-11-22T04:32:47.713Z,4.20
2022-11-22T04:35:16.716Z,4.20
2022-11-22T04:37:43.287Z,4.20
2022-11-22T04:40:10.068Z,4.20
2022-11-22T04:42:55.178Z,4.20
2022-11-22T04:45:21.742Z,4.20
2022-11-22T04:48:00.230Z,4.20
2022-11-22T04:50:49.012Z,4.20
2022-11-22T04:53:15.794Z,4.20
2022-11-22T04:55:42.453Z,4.20
2022-11-22T04:58:09.095Z,4.20
2022-11-22T05:00:35.716Z,4.30
2022-11-22T05:03:02.500Z,4.30
2022-11-22T05:05:29.071Z,4.30
2022-11-22T05:07:55.948Z,4.30
2022-11-22T05:10:26.481Z,4.30
2022-11-22T05:12:53.803Z,4.30
2022-11-22T05:15:20.415Z,4.30
2022-11-22T05:17:46.956Z,4.40
2022-11-22T05:20:13.614Z,4.30
2022-11-22T05:22:58.977Z,4.40
2022-11-22T05:25:25.903Z,4.40
2022-11-22T05:27:53.065Z,4.40
2022-11-22T05:30:19.600Z,4.40
2022-11-22T05:32:46.367Z,4.40
2022-11-22T05:35:12.891Z,4.40
2022-11-22T05:37:39.431Z,4.40
2022-11-22T05:40:06.302Z,4.40
2022-11-22T05:42:33.452Z,4.40
2022-11-22T05:45:00.193Z,4.40
2022-11-22T05:47:26.792Z,4.40
2022-11-22T05:49:53.334Z,4.40
2022-11-22T05:52:19.886Z,4.40
2022-11-22T05:54:46.427Z,4.40
2022-11-22T05:57:13.036Z,4.40
2022-11-22T05:59:43.909Z,4.30
2022-11-22T06:02:11.053Z,4.30
2022-11-22T06:04:37.675Z,4.30
2022-11-22T06:07:09.670Z,4.30
2022-11-22T06:09:36.763Z,4.40
2022-11-22T06:12:03.415Z,4.40
2022-11-22T06:14:29.976Z,4.40
2022-11-22T06:16:56.651Z,4.50
2022-11-22T06:19:23.204Z,4.50
2022-11-22T06:21:49.736Z,4.50
2022-11-22T06:24:16.286Z,4.50
2022-11-22T06:26:42.828Z,4.60
2022-11-22T06:29:09.591Z,4.60
2022-11-22T06:31:36.955Z,4.60
2022-11-22T06:34:03.497Z,4.60
2022-11-22T06:36:30.724Z,4.60
2022-11-22T06:38:57.291Z,4.60
2022-11-22T06:41:24.605Z,4.70
2022-11-22T06:43:51.403Z,4.60
2022-11-22T06:46:18.520Z,4.70
2022-11-22T06:48:45.116Z,4.70
2022-11-22T06:51:12.859Z,4.70
2022-11-22T06:53:47.489Z,4.70
2022-11-22T06:56:18.871Z,4.80
2022-11-22T06:58:45.561Z,4.80
2022-11-22T07:01:13.009Z,4.80
2022-11-22T07:03:40.120Z,4.80
2022-11-22T07:06:07.125Z,4.80
2022-11-22T07:08:33.888Z,4.90
2022-11-22T07:11:10.339Z,4.90
2022-11-22T07:13:37.213Z,4.90
2022-11-22T07:16:04.887Z,5.00
2022-11-22T07:18:31.924Z,5.00
2022-11-22T07:21:13.515Z,5.10
2022-11-22T07:23:44.108Z,5.20
2022-11-22T07:26:10.800Z,5.20
2022-11-22T07:28:37.399Z,5.30
2022-11-22T07:31:04.663Z,5.30
2022-11-22T07:33:31.269Z,5.40
2022-11-22T07:36:03.551Z,5.40
2022-11-22T07:38:30.115Z,5.40
2022-11-22T07:40:56.866Z,5.40
2022-11-22T07:43:23.418Z,5.40
2022-11-22T07:45:49.993Z,5.40
2022-11-22T07:48:16.543Z,5.40
2022-11-22T07:50:43.075Z,5.40
2022-11-22T07:53:09.629Z,5.50
2022-11-22T07:55:36.252Z,5.50
2022-11-22T07:58:02.817Z,5.60
2022-11-22T08:00:29.393Z,5.60
2022-11-22T08:02:55.945Z,5.70
2022-11-22T08:05:22.499Z,5.70
2022-11-22T08:07:49.557Z,5.70
2022-11-22T08:10:16.324Z,5.70
2022-11-22T08:12:43.003Z,5.70
2022-11-22T08:15:12.027Z,5.80
2022-11-22T08:17:38.612Z,5.80
2022-11-22T08:20:05.643Z,5.80
2022-11-22T08:22:32.194Z,5.80
2022-11-22T08:24:58.952Z,5.80
2022-11-22T08:27:25.498Z,5.80
2022-11-22T08:29:52.040Z,5.80
2022-11-22T08:32:18.582Z,5.80
2022-11-22T08:34:47.356Z,5.80
2022-11-22T08:37:14.161Z,5.90
2022-11-22T08:39:40.727Z,6.00
2022-11-22T08:42:07.632Z,6.00
2022-11-22T08:44:34.193Z,6.00
2022-11-22T08:47:00.722Z,6.10
2022-11-22T08:49:27.505Z,6.10
2022-11-22T08:51:54.178Z,6.10
2022-11-22T08:54:20.732Z,6.10
2022-11-22T08:56:47.273Z,6.20
2022-11-22T08:59:13.882Z,6.20
2022-11-22T09:01:40.513Z,6.30
2022-11-22T09:04:07.161Z,6.40
2022-11-22T09:09:36.978Z,6.60
2022-11-22T09:12:04.199Z,6.60
2022-11-22T09:14:30.752Z,6.70
2022-11-22T09:16:57.307Z,6.80
2022-11-22T09:19:23.918Z,7.00
2022-11-22T09:21:50.470Z,7.00
2022-11-22T09:24:17.108Z,7.10
2022-11-22T09:26:43.654Z,7.10
2022-11-22T09:29:10.342Z,7.20
2022-11-22T09:31:36.883Z,7.30
2022-11-22T09:34:03.431Z,7.30
2022-11-22T09:36:30.857Z,7.40
2022-11-22T09:38:57.473Z,7.40
2022-11-22T09:41:23.983Z,7.20
2022-11-22T09:44:29.172Z,7.20
2022-11-22T09:47:25.019Z,7.10
2022-11-22T09:50:01.192Z,7.20
2022-11-22T09:52:48.102Z,7.20
2022-11-22T09:55:24.258Z,7.20
2022-11-22T09:58:02.500Z,7.10
2022-11-22T10:00:29.056Z,7.10
2022-11-22T10:03:00.680Z,7.20
2022-11-22T10:05:30.261Z,7.20
2022-11-22T10:08:01.990Z,7.40
2022-11-22T10:10:30.043Z,7.50
2022-11-22T10:13:04.467Z,7.60
2022-11-22T10:15:49.884Z,7.70
2022-11-22T10:18:18.464Z,7.80
2022-11-22T10:20:48.764Z,7.90
2022-11-22T10:23:17.146Z,7.90
2022-11-22T10:25:47.959Z,8.00
2022-11-22T10:28:18.540Z,7.90
2022-11-22T10:30:47.750Z,8.00
2022-11-22T10:33:14.256Z,8.20
2022-11-22T10:35:57.517Z,8.20
2022-11-22T10:38:25.813Z,8.30
2022-11-22T10:41:05.699Z,8.20
2022-11-22T10:43:32.230Z,8.20
2022-11-22T10:46:01.470Z,8.30
2022-11-22T10:48:34.914Z,8.30
2022-11-22T10:51:04.467Z,8.30
2022-11-22T10:53:37.174Z,8.30
2022-11-22T10:56:25.062Z,8.20
2022-11-22T10:58:57.609Z,8.10
2022-11-22T11:01:39.114Z,8.00
2022-11-22T11:04:06.038Z,8.00
2022-11-22T11:07:04.786Z,8.20
2022-11-22T11:10:09.061Z,8.20
2022-11-22T11:12:12.926Z,8.40
2022-11-22T11:14:46.260Z,8.40
2022-11-22T11:17:20.925Z,8.60
2022-11-22T11:19:47.554Z,8.70
2022-11-22T11:22:30.513Z,8.70
2022-11-22T11:25:23.851Z,8.70
2022-11-22T11:27:50.388Z,8.70
2022-11-22T11:30:17.139Z,8.60
2022-11-22T11:32:53.408Z,8.60
2022-11-22T11:35:20.772Z,8.60
2022-11-22T11:37:47.314Z,8.50
2022-11-22T11:40:29.851Z,8.50
2022-11-22T11:43:14.237Z,8.60
2022-11-22T11:45:40.839Z,8.70
2022-11-22T11:48:26.174Z,8.80
2022-11-22T11:50:52.760Z,8.70
2022-11-22T11:53:24.238Z,8.70
2022-11-22T11:55:51.280Z,8.60
2022-11-22T11:58:21.615Z,8.50
2022-11-22T12:00:48.181Z,8.40
2022-11-22T12:03:15.830Z,8.40
2022-11-22T12:05:42.423Z,8.40
2022-11-22T12:08:27.537Z,8.30
2022-11-22T12:11:06.131Z,8.30
2022-11-22T12:13:57.807Z,8.30
2022-11-22T12:16:23.230Z,8.20
2022-11-22T12:19:08.608Z,8.20
2022-11-22T12:21:38.248Z,8.20
2022-11-22T12:24:42.765Z,8.20
2022-11-22T12:26:59.165Z,8.30
2022-11-22T12:29:25.708Z,8.20
2022-11-22T12:32:10.720Z,8.30
2022-11-22T12:34:40.569Z,8.30
2022-11-22T12:37:08.964Z,8.30
2022-11-22T12:39:36.220Z,8.40
2022-11-22T12:42:04.817Z,8.40
2022-11-22T12:44:33.918Z,8.50
2022-11-22T12:47:01.612Z,8.50
2022-11-22T12:49:30.108Z,8.50
2022-11-22T12:51:57.931Z,8.40
2022-11-22T12:54:28.729Z,8.20
2022-11-22T12:56:56.187Z,8.30
2022-11-22T12:59:37.264Z,8.30
2022-11-22T13:02:09.961Z,8.30
2022-11-22T13:04:45.296Z,8.30
2022-11-22T13:07:15.066Z,8.40
2022-11-22T13:09:42.682Z,8.30
2022-11-22T13:12:09.878Z,8.20
2022-11-22T13:14:38.009Z,8.10
2022-11-22T13:17:08.244Z,8.10
2022-11-22T13:19:38.015Z,8.00
2022-11-22T13:22:08.483Z,7.90
2022-11-22T13:24:44.541Z,7.90
2022-11-22T13:27:31.085Z,7.80
2022-11-22T13:29:58.304Z,7.80
2022-11-22T13:32:25.448Z,7.70
2022-11-22T13:35:10.684Z,7.70
2022-11-22T13:37:38.380Z,7.70
2022-11-22T13:40:19.207Z,7.80
2022-11-22T13:42:45.738Z,7.70
2022-11-22T13:45:19.479Z,7.70
2022-11-22T13:47:46.024Z,7.70
2022-11-22T13:50:31.338Z,7.70
2022-11-22T13:52:57.858Z,7.70
2022-11-22T13:55:29.185Z,7.70
2022-11-22T13:57:55.725Z,7.60
2022-11-22T14:00:22.259Z,7.50
2022-11-22T14:02:49.352Z,7.50
2022-11-22T14:05:19.308Z,7.50
2022-11-22T14:07:47.489Z,7.40
2022-11-22T14:10:49.602Z,7.40
2022-11-22T14:13:19.032Z,7.40
2022-11-22T14:15:57.359Z,7.30
2022-11-22T14:18:23.885Z,7.20
2022-11-22T14:21:09.419Z,7.20
2022-11-22T14:23:45.146Z,7.20
2022-11-22T14:26:16.221Z,7.20
2022-11-22T14:29:01.756Z,7.20
2022-11-22T14:31:32.176Z,7.20
2022-11-22T14:34:13.798Z,7.20
2022-11-22T14:36:40.347Z,7.20
2022-11-22T14:39:30.723Z,7.20
2022-11-22T14:42:00.028Z,7.20
2022-11-22T14:44:27.631Z,7.20
2022-11-22T14:46:54.537Z,7.30
2022-11-22T14:49:25.390Z,7.30
2022-11-22T14:51:52.624Z,7.30
2022-11-22T14:54:26.960Z,7.20
2022-11-22T14:56:53.688Z,7.20
2022-11-22T14:59:22.990Z,7.20
2022-11-22T15:01:49.713Z,7.20
2022-11-22T15:09:15.572Z,7.20
2022-11-22T15:09:21.463Z,7.20
2022-11-22T15:10:43.130Z,7.10
2022-11-22T15:13:09.800Z,7.10
2022-11-22T15:58:31.182Z,6.60
2022-11-22T16:01:01.486Z,6.60
2022-11-22T16:03:47.627Z,6.60
2022-11-22T16:06:14.763Z,6.70
2022-11-22T16:08:50.937Z,6.70
2022-11-22T16:11:21.291Z,6.70
2022-11-22T16:13:47.844Z,6.70
2022-11-22T16:16:14.408Z,6.80
2022-11-22T16:18:41.498Z,6.80
2022-11-22T16:21:11.285Z,6.80
2022-11-22T16:23:38.393Z,6.80
2022-11-22T16:26:14.157Z,6.80
2022-11-22T16:28:40.696Z,6.80
2022-11-22T16:31:15.947Z,6.80
2022-11-22T16:33:42.572Z,6.80
2022-11-22T16:36:09.256Z,6.90
2022-11-22T16:38:35.802Z,6.80
2022-11-22T16:41:02.498Z,6.90
2022-11-22T16:43:32.424Z,6.90
2022-11-22T16:45:58.976Z,6.90
2022-11-22T16:48:33.587Z,6.90
2022-11-22T16:51:02.339Z,6.90
2022-11-22T16:53:36.346Z,6.90
2022-11-22T16:56:02.891Z,7.00
2022-11-22T16:58:29.463Z,7.00
2022-11-22T17:00:56.055Z,7.00
2022-11-22T17:03:23.204Z,7.00
2022-11-22T17:05:49.768Z,7.00
2022-11-22T17:08:17.502Z,6.90
2022-11-22T17:10:45.432Z,6.90
2022-11-22T17:13:19.364Z,6.90
2022-11-22T17:15:45.962Z,6.90
2022-11-22T17:18:12.614Z,7.00
2022-11-22T17:20:39.264Z,7.00
2022-11-22T17:23:06.466Z,7.00
2022-11-22T17:25:33.021Z,7.00
2022-11-22T17:27:59.563Z,7.10
2022-11-22T17:30:26.094Z,7.10
2022-11-22T17:32:52.659Z,7.10
2022-11-22T17:35:19.190Z,7.10
2022-11-22T17:37:45.736Z,7.10
2022-11-22T17:40:13.210Z,7.10
2022-11-22T17:42:41.268Z,7.20
2022-11-22T17:45:08.108Z,7.10
2022-11-22T17:47:35.631Z,7.20
2022-11-22T17:50:02.174Z,7.10
2022-11-22T17:52:28.717Z,7.10
2022-11-22T17:54:55.655Z,7.10
2022-11-22T17:57:23.942Z,7.10
2022-11-22T17:59:50.489Z,7.10
2022-11-22T18:02:17.047Z,7.10
2022-11-22T18:04:44.494Z,7.10
2022-11-22T18:07:11.422Z,7.00
2022-11-22T18:09:37.996Z,7.00
2022-11-22T18:12:04.920Z,7.00
2022-11-22T18:14:31.522Z,7.00
2022-11-22T18:17:00.276Z,7.10
2022-11-22T18:19:26.876Z,7.00
2022-11-22T18:21:53.591Z,7.00
2022-11-22T18:24:20.158Z,7.00
2022-11-22T18:26:46.727Z,7.00
2022-11-22T18:32:00.461Z,7.00
2022-11-22T18:34:27.598Z,7.10
2022-11-22T18:36:56.295Z,7.00
2022-11-22T18:39:26.043Z,7.00
2022-11-22T18:41:52.600Z,7.00
2022-11-22T18:44:19.255Z,7.00
2022-11-22T18:46:46.241Z,7.00
2022-11-22T18:49:12.799Z,7.00
2022-11-22T18:51:39.347Z,7.00
2022-11-22T18:54:05.932Z,7.00
2022-11-22T18:56:37.723Z,7.00
2022-11-22T18:59:06.143Z,7.00
2022-11-22T19:01:34.467Z,7.00
2022-11-22T19:04:01.354Z,7.00
2022-11-22T19:06:27.900Z,7.00
2022-11-22T19:08:55.277Z,7.10
2022-11-22T19:11:21.836Z,7.00
2022-11-22T19:13:48.407Z,7.00
2022-11-22T19:16:15.963Z,6.90
2022-11-22T19:18:43.294Z,6.90
2022-11-22T19:21:12.501Z,6.90
2022-11-22T19:23:39.039Z,6.90
2022-11-22T19:26:06.530Z,6.90
2022-11-22T19:28:33.156Z,6.90
2022-11-22T19:31:00.378Z,6.90
2022-11-22T19:33:26.932Z,6.90
2022-11-22T19:35:57.349Z,6.90
2022-11-22T19:38:24.015Z,6.90
2022-11-22T19:40:50.542Z,6.90
2022-11-22T19:43:17.525Z,7.00
2022-11-22T19:45:44.138Z,6.90
2022-11-22T19:48:10.665Z,6.90
2022-11-22T19:50:37.752Z,6.80
2022-11-22T19:53:04.651Z,6.80
2022-11-22T19:55:33.262Z,6.80
2022-11-22T19:58:00.249Z,6.80
2022-11-22T20:00:26.791Z,6.80
2022-11-22T20:02:53.527Z,6.70
2022-11-22T20:05:20.121Z,6.80
2022-11-22T20:07:46.740Z,6.70
2022-11-22T20:10:13.378Z,6.70
2022-11-22T20:12:39.957Z,6.80
2022-11-22T20:15:06.767Z,6.80
2022-11-22T20:17:33.364Z,6.80
2022-11-22T20:19:59.972Z,6.80
2022-11-22T20:22:26.515Z,6.80
2022-11-22T20:24:53.059Z,6.80
2022-11-22T20:27:24.559Z,6.90
2022-11-22T20:29:51.433Z,6.90
2022-11-22T20:32:18.151Z,6.90
2022-11-22T20:34:44.692Z,6.90
2022-11-22T20:37:11.255Z,6.90
2022-11-22T20:39:37.851Z,6.90
2022-11-22T20:42:32.572Z,6.90
2022-11-22T20:44:50.927Z,6.90
2022-11-22T20:47:17.486Z,6.90
2022-11-22T20:49:45.600Z,6.90
2022-11-22T20:52:12.409Z,7.00
2022-11-22T20:54:38.957Z,7.00
2022-11-22T20:57:05.522Z,7.00
2022-11-22T20:59:32.685Z,7.00
2022-11-22T21:01:59.247Z,7.00
2022-11-22T21:04:25.783Z,7.10
2022-11-22T21:06:52.412Z,7.10
2022-11-22T21:09:18.967Z,7.00
2022-11-22T21:11:45.783Z,7.00
2022-11-22T21:14:12.443Z,7.10
2022-11-22T21:16:39.198Z,7.10
2022-11-22T21:19:05.796Z,7.00
2022-11-22T21:21:32.873Z,7.10
2022-11-22T21:23:59.934Z,7.10
2022-11-22T21:26:26.499Z,7.10
2022-11-22T21:28:53.104Z,7.10
2022-11-22T21:31:19.772Z,7.10
2022-11-22T21:33:46.340Z,7.20
2022-11-22T21:36:13.034Z,7.20
2022-11-22T21:38:39.610Z,7.20
2022-11-22T21:41:32.319Z,7.20
2022-11-22T21:43:53.990Z,7.20
2022-11-22T21:46:20.536Z,7.20
2022-11-22T21:48:48.054Z,7.20
2022-11-22T21:51:14.596Z,7.20
2022-11-22T21:53:41.193Z,7.20
2022-11-22T21:56:08.564Z,7.20
2022-11-22T21:58:35.120Z,7.10
2022-11-22T22:01:03.517Z,7.10
2022-11-22T22:03:30.250Z,7.20
2022-11-22T22:05:57.148Z,7.20
2022-11-22T22:08:26.314Z,7.20
2022-11-22T22:10:53.017Z,7.20
2022-11-22T22:13:19.591Z,7.20
2022-11-22T22:15:46.717Z,7.20
2022-11-22T22:18:13.441Z,7.20
2022-11-22T22:20:39.988Z,7.20
2022-11-22T22:23:06.535Z,7.20
2022-11-22T22:25:33.627Z,7.20
2022-11-22T22:28:00.175Z,7.20
2022-11-22T22:30:26.715Z,7.20
2022-11-22T22:32:53.260Z,7.20
2022-11-22T22:35:19.813Z,7.20
2022-11-22T22:37:46.383Z,7.20
2022-11-22T22:40:12.914Z,7.20
2022-11-22T22:42:39.467Z,7.30
2022-11-22T22:45:06.344Z,7.20
2022-11-22T22:47:32.897Z,7.30
2022-11-22T22:49:59.448Z,7.30
2022-11-22T22:52:26.022Z,7.30
2022-11-22T22:54:52.573Z,7.20
2022-11-22T22:57:19.128Z,7.10
2022-11-22T22:59:45.658Z,7.10
2022-11-22T23:02:12.212Z,7.00
2022-11-22T23:04:40.471Z,7.00
2022-11-22T23:07:07.410Z,6.80
2022-11-22T23:09:34.238Z,6.80
2022-11-22T23:12:13.203Z,6.80
2022-11-22T23:14:40.004Z,6.80
2022-11-22T23:17:07.134Z,6.70
2022-11-22T23:19:33.954Z,6.80
2022-11-22T23:22:00.748Z,6.90
2022-11-22T23:24:29.113Z,7.00
2022-11-22T23:26:55.642Z,7.00
2022-11-22T23:29:22.178Z,7.10
2022-11-22T23:31:48.706Z,7.10
2022-11-22T23:34:15.320Z,7.20
2022-11-22T23:36:41.856Z,7.20
2022-11-22T23:39:08.669Z,7.20
2022-11-22T23:41:35.275Z,7.20
2022-11-22T23:44:01.913Z,7.20
2022-11-22T23:46:28.997Z,7.20
2022-11-22T23:48:59.200Z,7.30
2022-11-22T23:51:26.200Z,7.30
2022-11-22T23:53:56.194Z,7.30
2022-11-22T23:56:22.786Z,7.30
2022-11-22T23:58:49.565Z,7.30
